Vores vejrinfo findes også på:

UK Metoffice

European Weather Network

Weather Underground



Stationer ""tæt på"" METAR Rapporter

   
EKEB - Esbjerg, Denmark
Afstand fra denne vejrstation: NNV 29 km
Opdateret: 29-11-2020 11:50
Overskyet  
Overskyet  
   Vind fra: East 0.5 m/s
Vind fra: East 0.5 m/s
Temperatur: 1°C
Dugpunkt: -1°C
Luftfugtighed: 87%
Barometer: 1029 hPa
Skyer: Overskyet
Sigtbarhed: More than 10 km
Sky detaljer: Overskyet 1100 ft
EKEB 291050Z AUTO 09001KT 9999 OVC011/// 01/M01 Q1029
EKSP - Skrydstrup(Dan-A, Denmark
Afstand fra denne vejrstation: Ø 35 km
Opdateret: 29-11-2020 11:50
Mest overskyet  
Mest overskyet  
   Vind fra: North 1.5 m/s
Vind fra: North 1.5 m/s
Temperatur: 2°C
Chill faktor: 1°C
Dugpunkt: 0°C
Luftfugtighed: 87%
Barometer: 1029 hPa
Skyer: Mest overskyet
Sigtbarhed: More than 10 km
Sky detaljer: Mest overskyet 1800 ft
EKSP 291050Z 35003KT 9999 BKN018 02/00 Q1029
EKBI - Billund Airport, Denmark
Afstand fra denne vejrstation: NNØ 56 km
Opdateret: 29-11-2020 11:50
Overskyet  
Overskyet  
   Vind fra: NNØ 2.1 m/s
Vind fra: NNØ 2.1 m/s
Temperatur: 1°C
Chill faktor: -1°C
Dugpunkt: 0°C
Luftfugtighed: 93%
Barometer: 1029 hPa
Skyer: Overskyet
Sigtbarhed: More than 10 km
Sky detaljer: Overskyet 700 ft
EKBI 291050Z AUTO 02004KT 340V050 9999 OVC007/// 01/M00 Q1029
EKSB - Sonderborg Airpo, Denmark
Afstand fra denne vejrstation: ØSØ 76 km
Opdateret: 29-11-2020 11:50
Overskyet  
Overskyet  
   Vind fra: svinger 2.1 m/s
Vind fra: svinger 2.1 m/s
Temperatur: 4°C
Chill faktor: 2°C
Dugpunkt: 0°C
Luftfugtighed: 75%
Barometer: 1028 hPa
Skyer: Overskyet
Sigtbarhed: 10 km
Sky detaljer: Overskyet 2200 ft
EKSB 291050Z AUTO VRB04KT 9999NDV OVC022/// 04/M00 Q1028
EKVD - Vamdrup (aut/man), Denmark
Afstand fra denne vejrstation: ØNØ 41 km
Opdateret: 29-11-2020 11:50
Mest overskyet  
Mest overskyet  
   Vind fra: NØ 2.6 m/s
Vind fra: NØ 2.6 m/s
Temperatur: 2°C
Chill faktor: -1°C
Dugpunkt: 0°C
Luftfugtighed: 87%
Barometer: 1029 hPa
Skyer: Mest overskyet
Sigtbarhed: More than 10 km
Sky detaljer: Få skyer 1800 ft,
Mest overskyet 2000 ft
EKVD 291050Z 04005KT 9999 FEW018 BKN020 02/00 Q1029
EDXW - Westerland/Sylt, Germany
Afstand fra denne vejrstation: SSV 47 km
Opdateret: 29-11-2020 11:50
Klart  
Klart  
   Vind fra: NØ 4.1 m/s
Vind fra: NØ 4.1 m/s
Temperatur: 3°C
Chill faktor: -1°C
Dugpunkt: 0°C
Luftfugtighed: 81%
Barometer: 1029 hPa
Skyer: Klart
Sigtbarhed: More than 10 km
Sky detaljer: Klart
EDXW 291050Z AUTO 05008KT 9999 // NCD 03/00 Q1029

Original script by  Saratoga-weather.org Adapted for the template by  Weerstation Leuven

Der anvendes følgende:

Vejrstation
Davis VP2

Vejrprogram
Meteohub

Server
RaspberryPI 3 model B

Davis VP2

Meteohub

RaspberryPI 3 model B